createdAt,value
2023-05-19T00:01:22.183Z,7.68
2023-05-19T00:03:57.672Z,7.55
2023-05-19T00:06:34.031Z,7.05
2023-05-19T00:09:09.962Z,7.55
2023-05-19T00:11:39.755Z,7.03
2023-05-19T00:14:10.220Z,7.10
2023-05-19T00:16:39.130Z,7.25
2023-05-19T00:19:10.380Z,6.57
2023-05-19T00:21:41.429Z,7.18
2023-05-19T00:24:08.842Z,8.18
2023-05-19T00:26:36.266Z,7.75
2023-05-19T00:29:03.901Z,7.53
2023-05-19T00:31:31.866Z,8.20
2023-05-19T00:33:59.196Z,7.60
2023-05-19T00:36:26.663Z,8.23
2023-05-19T00:38:53.907Z,7.25
2023-05-19T00:41:21.203Z,7.93
2023-05-19T00:43:48.551Z,8.20
2023-05-19T00:46:16.101Z,7.82
2023-05-19T00:48:45.565Z,8.07
2023-05-19T00:51:16.979Z,9.70
2023-05-19T00:53:49.416Z,8.40
2023-05-19T00:56:18.538Z,8.80
2023-05-19T00:58:47.120Z,8.88
2023-05-19T01:01:17.415Z,9.50
2023-05-19T01:03:45.438Z,8.15
2023-05-19T01:06:12.912Z,9.57
2023-05-19T01:08:40.257Z,9.95
2023-05-19T01:11:08.748Z,9.98
2023-05-19T01:16:33.948Z,9.65
2023-05-19T01:19:31.176Z,10.07
2023-05-19T01:22:27.685Z,9.43
2023-05-19T01:25:35.483Z,9.40
2023-05-19T01:28:22.319Z,10.38
2023-05-19T01:30:55.997Z,9.82
2023-05-19T01:33:24.801Z,10.50
2023-05-19T01:35:54.943Z,10.63
2023-05-19T01:38:25.074Z,11.15
2023-05-19T01:40:55.103Z,10.80
2023-05-19T01:43:27.582Z,9.68
2023-05-19T01:45:57.490Z,9.98
2023-05-19T01:48:26.691Z,10.70
2023-05-19T01:50:55.053Z,12.10
2023-05-19T01:53:22.350Z,10.88
2023-05-19T01:55:56.538Z,11.32
2023-05-19T01:58:41.761Z,11.43
2023-05-19T02:01:51.691Z,10.63
2023-05-19T02:04:56.232Z,11.25
2023-05-19T02:07:41.627Z,10.98
2023-05-19T02:10:21.152Z,11.88
2023-05-19T02:12:53.441Z,12.00
2023-05-19T02:15:40.353Z,10.68
2023-05-19T02:18:11.924Z,11.38
2023-05-19T02:20:40.815Z,10.85
2023-05-19T02:23:08.139Z,12.38
2023-05-19T02:25:35.557Z,11.25
2023-05-19T02:28:02.996Z,12.40
2023-05-19T02:30:32.152Z,10.38
2023-05-19T02:33:00.583Z,10.80
2023-05-19T02:35:28.168Z,11.90
2023-05-19T02:37:55.491Z,11.03
2023-05-19T02:40:23.061Z,11.40
2023-05-19T02:42:50.458Z,11.75
2023-05-19T02:45:17.868Z,11.63
2023-05-19T02:47:45.262Z,13.15
2023-05-19T02:50:12.632Z,11.35
2023-05-19T02:52:39.962Z,11.00
2023-05-19T02:55:07.872Z,11.65
2023-05-19T02:57:35.804Z,11.45
2023-05-19T03:00:03.669Z,11.77
2023-05-19T03:02:33.444Z,11.80
2023-05-19T03:05:02.001Z,11.43
2023-05-19T03:09:56.538Z,11.45
2023-05-19T03:12:23.893Z,11.88
2023-05-19T03:14:51.265Z,12.50
2023-05-19T03:17:18.640Z,12.43
2023-05-19T03:19:48.903Z,12.07
2023-05-19T03:22:16.302Z,13.57
2023-05-19T03:24:43.653Z,13.13
2023-05-19T03:27:12.622Z,11.45
2023-05-19T03:29:39.962Z,12.73
2023-05-19T03:32:07.713Z,13.00
2023-05-19T03:34:35.542Z,12.60
2023-05-19T03:37:02.856Z,12.60
2023-05-19T03:39:30.124Z,12.70
2023-05-19T03:41:57.439Z,11.82
2023-05-19T03:44:24.791Z,11.57
2023-05-19T03:46:52.216Z,11.25
2023-05-19T03:49:19.492Z,11.48
2023-05-19T03:51:47.122Z,11.48
2023-05-19T03:54:14.464Z,10.98
2023-05-19T03:56:43.698Z,11.40
2023-05-19T03:59:11.035Z,10.82
2023-05-19T04:01:38.398Z,11.27
2023-05-19T04:04:05.805Z,11.50
2023-05-19T04:06:34.019Z,10.00
2023-05-19T04:09:05.207Z,9.73
2023-05-19T04:11:32.412Z,10.80
2023-05-19T04:13:59.698Z,10.38
2023-05-19T04:16:26.998Z,10.75
2023-05-19T04:18:54.370Z,10.02
2023-05-19T04:21:22.550Z,10.02
2023-05-19T04:23:50.012Z,10.90
2023-05-19T04:26:18.156Z,10.90
2023-05-19T04:28:45.970Z,9.60
2023-05-19T04:31:16.179Z,9.10
2023-05-19T04:33:43.701Z,9.65
2023-05-19T04:36:11.536Z,9.33
2023-05-19T04:38:39.998Z,9.98
2023-05-19T04:43:44.620Z,9.20
2023-05-19T04:46:15.892Z,9.15
2023-05-19T04:48:50.761Z,9.13
2023-05-19T04:51:30.837Z,10.38
2023-05-19T04:54:03.652Z,10.07
2023-05-19T04:56:31.125Z,10.95
2023-05-19T04:58:58.432Z,10.45
2023-05-19T05:01:26.466Z,9.18
2023-05-19T05:03:55.883Z,10.27
2023-05-19T05:06:23.267Z,10.45
2023-05-19T05:08:52.421Z,10.63
2023-05-19T05:11:20.707Z,9.73
2023-05-19T05:13:48.662Z,10.52
2023-05-19T05:16:19.304Z,10.23
2023-05-19T05:18:47.311Z,10.57
2023-05-19T05:21:15.141Z,10.60
2023-05-19T05:23:42.868Z,10.02
2023-05-19T05:26:19.868Z,9.57
2023-05-19T05:28:47.566Z,9.13
2023-05-19T05:31:15.306Z,9.93
2023-05-19T05:33:43.930Z,9.48
2023-05-19T05:36:11.398Z,9.52
2023-05-19T05:38:38.820Z,9.52
2023-05-19T05:41:06.309Z,8.65
2023-05-19T05:43:33.664Z,8.48
2023-05-19T05:46:01.147Z,9.68
2023-05-19T05:48:29.280Z,8.53
2023-05-19T05:50:58.435Z,7.85
2023-05-19T05:53:30.934Z,8.27
2023-05-19T05:55:58.833Z,8.10
2023-05-19T05:58:26.203Z,8.93
2023-05-19T06:00:57.652Z,8.27
2023-05-19T06:03:26.241Z,9.18
2023-05-19T06:08:21.319Z,8.90
2023-05-19T06:10:48.805Z,8.00
2023-05-19T06:13:18.879Z,8.35
2023-05-19T06:15:46.494Z,8.50
2023-05-19T06:18:13.886Z,8.10
2023-05-19T06:20:41.449Z,10.13
2023-05-19T06:23:08.842Z,8.73
2023-05-19T06:25:36.381Z,7.88
2023-05-19T06:28:03.768Z,8.07
2023-05-19T06:30:35.926Z,7.05
2023-05-19T06:33:04.989Z,9.13
2023-05-19T06:35:32.664Z,8.40
2023-05-19T06:38:00.050Z,8.30
2023-05-19T06:40:27.413Z,7.50
2023-05-19T06:42:54.940Z,7.45
2023-05-19T06:45:23.955Z,7.50
2023-05-19T06:47:51.414Z,8.15
2023-05-19T06:50:19.123Z,8.70
2023-05-19T06:52:47.245Z,7.47
2023-05-19T06:55:14.676Z,7.32
2023-05-19T06:57:42.127Z,6.90
2023-05-19T07:00:13.433Z,7.65
2023-05-19T07:02:42.652Z,8.00
2023-05-19T07:05:10.442Z,8.38
2023-05-19T07:07:37.841Z,8.10
2023-05-19T07:10:06.074Z,8.07
2023-05-19T07:12:36.295Z,8.45
2023-05-19T07:15:04.053Z,8.48
2023-05-19T07:17:31.481Z,8.00
2023-05-19T07:19:58.973Z,7.63
2023-05-19T07:22:26.420Z,7.40
2023-05-19T07:24:53.797Z,8.02
2023-05-19T07:27:22.231Z,7.10
2023-05-19T07:32:20.105Z,6.65
2023-05-19T07:34:48.645Z,6.57
2023-05-19T07:39:46.206Z,6.15
2023-05-19T07:42:13.590Z,6.23
2023-05-19T07:44:40.967Z,7.95
2023-05-19T07:47:08.306Z,5.68
2023-05-19T07:49:37.011Z,4.30
2023-05-19T07:52:04.439Z,5.15
2023-05-19T07:54:31.939Z,4.95
2023-05-19T07:56:59.438Z,4.65
2023-05-19T07:59:26.806Z,4.72
2023-05-19T08:01:54.148Z,4.40
2023-05-19T08:04:21.657Z,4.15
2023-05-19T08:06:49.118Z,4.50
2023-05-19T08:09:16.638Z,5.32
2023-05-19T08:11:45.124Z,4.10
2023-05-19T08:14:13.392Z,5.00
2023-05-19T08:16:42.406Z,4.40
2023-05-19T08:19:09.972Z,4.57
2023-05-19T08:21:37.657Z,4.70
2023-05-19T08:24:05.270Z,4.57
2023-05-19T08:26:32.650Z,4.37
2023-05-19T08:29:00.095Z,4.07
2023-05-19T08:31:27.970Z,4.90
2023-05-19T08:33:55.602Z,5.65
2023-05-19T08:36:23.046Z,5.40
2023-05-19T08:38:50.393Z,4.57
2023-05-19T08:41:18.593Z,5.00
2023-05-19T08:43:46.056Z,4.90
2023-05-19T08:46:17.606Z,4.53
2023-05-19T08:48:48.354Z,4.60
2023-05-19T08:51:41.864Z,4.80
2023-05-19T08:54:18.118Z,4.72
2023-05-19T08:56:46.648Z,4.82
2023-05-19T09:01:46.557Z,5.05
2023-05-19T09:04:15.686Z,5.70
2023-05-19T09:06:45.193Z,4.82
2023-05-19T09:09:43.331Z,5.88
2023-05-19T09:12:20.561Z,5.03
2023-05-19T09:14:48.655Z,6.03
2023-05-19T09:17:16.541Z,6.43
2023-05-19T09:19:48.179Z,5.88
2023-05-19T09:22:19.279Z,7.43
2023-05-19T09:24:48.321Z,7.30
2023-05-19T09:27:22.996Z,6.93
2023-05-19T09:29:51.047Z,6.05
2023-05-19T09:32:28.030Z,6.13
2023-05-19T09:34:55.539Z,6.30
2023-05-19T09:37:24.627Z,6.10
2023-05-19T09:39:53.309Z,6.30
2023-05-19T09:42:28.388Z,6.18
2023-05-19T09:45:03.563Z,6.97
2023-05-19T09:47:39.454Z,6.60
2023-05-19T09:50:10.047Z,9.25
2023-05-19T09:52:44.027Z,6.57
2023-05-19T09:55:13.982Z,6.95
2023-05-19T09:57:41.566Z,6.20
2023-05-19T10:00:22.182Z,6.15
2023-05-19T10:12:32.105Z,6.55
2023-05-19T10:15:12.057Z,5.18
2023-05-19T10:17:41.566Z,6.97
2023-05-19T10:20:17.328Z,6.30
2023-05-19T20:38:51.815Z,2.28
2023-05-19T20:41:19.152Z,2.70
2023-05-19T20:43:46.618Z,2.50
2023-05-19T20:46:14.002Z,2.50
2023-05-19T20:48:41.566Z,3.13
2023-05-19T20:51:08.953Z,3.03
2023-05-19T20:53:36.703Z,2.65
2023-05-19T20:56:05.300Z,2.97
2023-05-19T20:58:33.050Z,3.08
2023-05-19T21:01:00.704Z,3.00
2023-05-19T21:03:28.728Z,3.13
2023-05-19T21:05:56.476Z,3.38
2023-05-19T21:08:24.730Z,3.85
2023-05-19T21:10:52.187Z,3.10
2023-05-19T21:13:19.579Z,2.92
2023-05-19T21:15:47.955Z,3.28
2023-05-19T21:18:15.264Z,3.20
2023-05-19T21:20:42.670Z,3.67
2023-05-19T21:23:09.957Z,3.25
2023-05-19T21:25:37.257Z,3.50
2023-05-19T21:28:05.045Z,3.15
2023-05-19T21:30:32.700Z,3.60
2023-05-19T21:33:00.274Z,3.63
2023-05-19T21:35:49.618Z,3.90
2023-05-19T21:38:23.987Z,3.15
2023-05-19T21:40:53.352Z,4.45
2023-05-19T21:43:21.931Z,3.65
2023-05-19T21:45:49.486Z,3.30
2023-05-19T21:48:16.920Z,3.67
2023-05-19T21:50:44.486Z,3.10
2023-05-19T21:53:11.864Z,3.97
2023-05-19T21:55:39.469Z,3.03
2023-05-19T21:58:06.841Z,3.77
2023-05-19T22:00:34.521Z,3.78
2023-05-19T22:03:02.202Z,3.65
2023-05-19T23:41:35.147Z,3.17
2023-05-19T23:44:02.456Z,3.08
2023-05-19T23:46:29.916Z,4.10
2023-05-19T23:48:57.268Z,3.53
2023-05-19T23:51:24.575Z,3.03
2023-05-19T23:53:51.854Z,3.42
2023-05-19T23:56:19.208Z,3.17
2023-05-19T23:58:46.593Z,2.83
